sensor_id;sensor_type;location;lat;lon;timestamp;pressure;altitude;pressure_sealevel;temperature;humidity
6030;BME280;3043;42.682;23.376;2023-03-01T00:01:24;95381.84;;;6.66;100.00
6030;BME280;3043;42.682;23.376;2023-03-01T00:03:51;95376.69;;;6.69;100.00
6030;BME280;3043;42.682;23.376;2023-03-01T00:06:17;95375.00;;;6.68;100.00
6030;BME280;3043;42.682;23.376;2023-03-01T00:08:42;95374.13;;;6.66;100.00
6030;BME280;3043;42.682;23.376;2023-03-01T00:11:15;95374.16;;;6.63;100.00
6030;BME280;3043;42.682;23.376;2023-03-01T00:13:43;95371.59;;;6.57;100.00
6030;BME280;3043;42.682;23.376;2023-03-01T00:16:11;95371.59;;;6.60;100.00
6030;BME280;3043;42.682;23.376;2023-03-01T00:18:38;95366.47;;;6.54;100.00
6030;BME280;3043;42.682;23.376;2023-03-01T00:21:04;95375.06;;;6.53;100.00
6030;BME280;3043;42.682;23.376;2023-03-01T00:23:31;95362.19;;;6.53;100.00
6030;BME280;3043;42.682;23.376;2023-03-01T00:25:56;95362.22;;;6.44;100.00
6030;BME280;3043;42.682;23.376;2023-03-01T00:28:22;95357.09;;;6.44;100.00
6030;BME280;3043;42.682;23.376;2023-03-01T00:30:47;95353.66;;;6.42;100.00
6030;BME280;3043;42.682;23.376;2023-03-01T00:33:13;95351.09;;;6.39;100.00
6030;BME280;3043;42.682;23.376;2023-03-01T00:35:38;95345.06;;;6.38;100.00
6030;BME280;3043;42.682;23.376;2023-03-01T00:38:04;95346.81;;;6.39;100.00
6030;BME280;3043;42.682;23.376;2023-03-01T00:40:33;95339.09;;;6.39;100.00
6030;BME280;3043;42.682;23.376;2023-03-01T00:42:58;95346.81;;;6.38;100.00
6030;BME280;3043;42.682;23.376;2023-03-01T00:45:24;95327.09;;;6.37;100.00
6030;BME280;3043;42.682;23.376;2023-03-01T00:47:50;95332.25;;;6.35;100.00
6030;BME280;3043;42.682;23.376;2023-03-01T00:50:16;95333.09;;;6.37;100.00
6030;BME280;3043;42.682;23.376;2023-03-01T00:52:42;95337.38;;;6.37;100.00
6030;BME280;3043;42.682;23.376;2023-03-01T00:55:08;95337.41;;;6.31;100.00
6030;BME280;3043;42.682;23.376;2023-03-01T00:57:33;95337.38;;;6.37;100.00
6030;BME280;3043;42.682;23.376;2023-03-01T00:59:59;95329.69;;;6.32;100.00
6030;BME280;3043;42.682;23.376;2023-03-01T01:02:25;95327.97;;;6.33;100.00
6030;BME280;3043;42.682;23.376;2023-03-01T01:04:51;95336.53;;;6.39;100.00
6030;BME280;3043;42.682;23.376;2023-03-01T01:07:17;95338.22;;;6.43;100.00
6030;BME280;3043;42.682;23.376;2023-03-01T01:09:42;95339.06;;;6.47;100.00
6030;BME280;3043;42.682;23.376;2023-03-01T01:12:08;95337.31;;;6.49;100.00
6030;BME280;3043;42.682;23.376;2023-03-01T01:14:34;95339.09;;;6.44;100.00
6030;BME280;3043;42.682;23.376;2023-03-01T01:17:00;95340.81;;;6.39;100.00
6030;BME280;3043;42.682;23.376;2023-03-01T01:19:26;95339.09;;;6.41;100.00
6030;BME280;3043;42.682;23.376;2023-03-01T01:21:52;95333.94;;;6.41;100.00
6030;BME280;3043;42.682;23.376;2023-03-01T01:24:18;95334.78;;;6.40;100.00
6030;BME280;3043;42.682;23.376;2023-03-01T01:26:44;95333.94;;;6.41;100.00
6030;BME280;3043;42.682;23.376;2023-03-01T01:29:10;95333.94;;;6.41;100.00
6030;BME280;3043;42.682;23.376;2023-03-01T01:31:37;95334.81;;;6.35;100.00
6030;BME280;3043;42.682;23.376;2023-03-01T01:34:05;95339.13;;;6.32;100.00
6030;BME280;3043;42.682;23.376;2023-03-01T01:36:31;95340.84;;;6.27;100.00
6030;BME280;3043;42.682;23.376;2023-03-01T01:38:57;95346.84;;;6.29;100.00
6030;BME280;3043;42.682;23.376;2023-03-01T01:41:24;95345.09;;;6.29;100.00
6030;BME280;3043;42.682;23.376;2023-03-01T01:44:14;95353.69;;;6.27;100.00
6030;BME280;3043;42.682;23.376;2023-03-01T01:46:54;95370.81;;;6.31;100.00
6030;BME280;3043;42.682;23.376;2023-03-01T01:51:52;95375.13;;;6.32;100.00
6030;BME280;3043;42.682;23.376;2023-03-01T01:54:33;95354.53;;;6.35;100.00
6030;BME280;3043;42.682;23.376;2023-03-01T01:57:07;95351.09;;;6.33;100.00
6030;BME280;3043;42.682;23.376;2023-03-01T01:59:34;95345.97;;;6.33;100.00
6030;BME280;3043;42.682;23.376;2023-03-01T02:02:02;95336.53;;;6.38;100.00
6030;BME280;3043;42.682;23.376;2023-03-01T02:04:29;95339.09;;;6.44;100.00
6030;BME280;3043;42.682;23.376;2023-03-01T02:07:01;95344.19;;;6.50;100.00
6030;BME280;3043;42.682;23.376;2023-03-01T02:09:30;95339.06;;;6.50;100.00
6030;BME280;3043;42.682;23.376;2023-03-01T02:11:56;95333.88;;;6.59;100.00
6030;BME280;3043;42.682;23.376;2023-03-01T02:14:22;95327.03;;;6.55;100.00
6030;BME280;3043;42.682;23.376;2023-03-01T02:16:47;95330.50;;;6.48;100.00
6030;BME280;3043;42.682;23.376;2023-03-01T02:19:23;95325.31;;;6.54;100.00
6030;BME280;3043;42.682;23.376;2023-03-01T02:22:00;95330.47;;;6.54;100.00
6030;BME280;3043;42.682;23.376;2023-03-01T02:27:15;95322.75;;;6.55;100.00
6030;BME280;3043;42.682;23.376;2023-03-01T02:29:42;95334.75;;;6.49;100.00
6030;BME280;3043;42.682;23.376;2023-03-01T02:32:11;95330.50;;;6.48;100.00
6030;BME280;3043;42.682;23.376;2023-03-01T02:34:38;95333.91;;;6.50;100.00
6030;BME280;3043;42.682;23.376;2023-03-01T02:37:13;95341.66;;;6.44;100.00
6030;BME280;3043;42.682;23.376;2023-03-01T02:39:43;95347.66;;;6.40;100.00
6030;BME280;3043;42.682;23.376;2023-03-01T02:42:13;95333.97;;;6.38;100.00
6030;BME280;3043;42.682;23.376;2023-03-01T02:44:40;95339.09;;;6.44;100.00
6030;BME280;3043;42.682;23.376;2023-03-01T02:47:06;95336.53;;;6.42;100.00
6030;BME280;3043;42.682;23.376;2023-03-01T02:49:33;95337.38;;;6.40;100.00
6030;BME280;3043;42.682;23.376;2023-03-01T02:57:27;95334.81;;;6.37;100.00
6030;BME280;3043;42.682;23.376;2023-03-01T02:59:54;95324.53;;;6.34;100.00
6030;BME280;3043;42.682;23.376;2023-03-01T03:02:24;95329.66;;;6.35;100.00
6030;BME280;3043;42.682;23.376;2023-03-01T03:05:08;95341.69;;;6.38;100.00
6030;BME280;3043;42.682;23.376;2023-03-01T03:07:36;95331.38;;;6.39;100.00
6030;BME280;3043;42.682;23.376;2023-03-01T03:10:03;95327.09;;;6.37;100.00
6030;BME280;3043;42.682;23.376;2023-03-01T03:12:29;95334.00;;;6.29;100.00
6030;BME280;3043;42.682;23.376;2023-03-01T03:14:55;95337.38;;;6.34;100.00
6030;BME280;3043;42.682;23.376;2023-03-01T03:17:20;95336.56;;;6.29;100.00
6030;BME280;3043;42.682;23.376;2023-03-01T03:19:46;95342.53;;;6.31;100.00
6030;BME280;3043;42.682;23.376;2023-03-01T03:22:12;95333.13;;;6.25;100.00
6030;BME280;3043;42.682;23.376;2023-03-01T03:24:37;95333.09;;;6.36;100.00
6030;BME280;3043;42.682;23.376;2023-03-01T03:27:07;95340.78;;;6.42;100.00
6030;BME280;3043;42.682;23.376;2023-03-01T03:29:32;95347.66;;;6.38;100.00
6030;BME280;3043;42.682;23.376;2023-03-01T03:31:58;95351.97;;;6.33;100.00
6030;BME280;3043;42.682;23.376;2023-03-01T03:34:24;95337.41;;;6.25;100.00
6030;BME280;3043;42.682;23.376;2023-03-01T03:36:56;95338.28;;;6.22;100.00
6030;BME280;3043;42.682;23.376;2023-03-01T03:39:25;95345.09;;;6.31;100.00
6030;BME280;3043;42.682;23.376;2023-03-01T03:41:52;95337.41;;;6.28;100.00
6030;BME280;3043;42.682;23.376;2023-03-01T03:44:17;95342.53;;;6.31;100.00
6030;BME280;3043;42.682;23.376;2023-03-01T03:46:43;95343.41;;;6.25;100.00
6030;BME280;3043;42.682;23.376;2023-03-01T03:49:08;95351.13;;;6.21;100.00
6030;BME280;3043;42.682;23.376;2023-03-01T03:51:34;95352.84;;;6.19;100.00
6030;BME280;3043;42.682;23.376;2023-03-01T03:53:59;95347.69;;;6.29;100.00
6030;BME280;3043;42.682;23.376;2023-03-01T03:56:24;95343.41;;;6.25;100.00
6030;BME280;3043;42.682;23.376;2023-03-01T03:58:53;95346.84;;;6.24;100.00
6030;BME280;3043;42.682;23.376;2023-03-01T04:01:19;95354.56;;;6.23;100.00
6030;BME280;3043;42.682;23.376;2023-03-01T04:03:44;95347.72;;;6.14;100.00
6030;BME280;3043;42.682;23.376;2023-03-01T04:06:13;95358.00;;;6.19;100.00
6030;BME280;3043;42.682;23.376;2023-03-01T04:08:39;95362.28;;;6.20;100.00
6030;BME280;3043;42.682;23.376;2023-03-01T04:11:05;95360.56;;;6.20;100.00
6030;BME280;3043;42.682;23.376;2023-03-01T04:13:51;95354.56;;;6.11;100.00
6030;BME280;3043;42.682;23.376;2023-03-01T04:16:17;95360.56;;;6.14;100.00
6030;BME280;3043;42.682;23.376;2023-03-01T04:18:43;95362.28;;;6.09;100.00
6030;BME280;3043;42.682;23.376;2023-03-01T04:21:08;95358.88;;;6.09;100.00
6030;BME280;3043;42.682;23.376;2023-03-01T04:23:34;95358.03;;;6.04;100.00
6030;BME280;3043;42.682;23.376;2023-03-01T04:26:00;95349.44;;;5.99;100.00
6030;BME280;3043;42.682;23.376;2023-03-01T04:28:31;95342.63;;;5.98;100.00
6030;BME280;3043;42.682;23.376;2023-03-01T04:31:09;95351.19;;;5.92;100.00
6030;BME280;3043;42.682;23.376;2023-03-01T04:36:08;95349.47;;;5.87;100.00
6030;BME280;3043;42.682;23.376;2023-03-01T04:38:35;95352.88;;;5.98;100.00
6030;BME280;3043;42.682;23.376;2023-03-01T04:41:06;95355.44;;;6.04;100.00
6030;BME280;3043;42.682;23.376;2023-03-01T04:43:32;95345.16;;;6.08;100.00
6030;BME280;3043;42.682;23.376;2023-03-01T04:46:07;95337.47;;;6.04;100.00
6030;BME280;3043;42.682;23.376;2023-03-01T04:48:36;95344.31;;;5.96;100.00
6030;BME280;3043;42.682;23.376;2023-03-01T04:51:03;95349.44;;;6.05;100.00
6030;BME280;3043;42.682;23.376;2023-03-01T04:53:29;95349.44;;;6.08;100.00
6030;BME280;3043;42.682;23.376;2023-03-01T04:55:55;95346.03;;;6.09;100.00
6030;BME280;3043;42.682;23.376;2023-03-01T04:58:25;95347.72;;;6.07;100.00
6030;BME280;3043;42.682;23.376;2023-03-01T05:00:52;95340.91;;;6.06;100.00
6030;BME280;3043;42.682;23.376;2023-03-01T05:03:17;95348.59;;;6.04;100.00
6030;BME280;3043;42.682;23.376;2023-03-01T05:05:44;95344.28;;;6.08;100.00
6030;BME280;3043;42.682;23.376;2023-03-01T05:08:10;95350.31;;;6.05;100.00
6030;BME280;3043;42.682;23.376;2023-03-01T05:10:48;95353.75;;;6.06;100.00
6030;BME280;3043;42.682;23.376;2023-03-01T05:13:14;95354.56;;;6.08;100.00
6030;BME280;3043;42.682;23.376;2023-03-01T05:15:54;95343.47;;;6.07;100.00
6030;BME280;3043;42.682;23.376;2023-03-01T05:18:20;95354.59;;;5.99;100.00
6030;BME280;3043;42.682;23.376;2023-03-01T05:20:46;95356.31;;;6.03;100.00
6030;BME280;3043;42.682;23.376;2023-03-01T05:23:12;95354.59;;;6.00;100.00
6030;BME280;3043;42.682;23.376;2023-03-01T05:25:38;95360.59;;;5.99;100.00
6030;BME280;3043;42.682;23.376;2023-03-01T05:28:06;95341.75;;;5.97;100.00
6030;BME280;3043;42.682;23.376;2023-03-01T05:30:34;95351.19;;;5.91;100.00
6030;BME280;3043;42.682;23.376;2023-03-01T05:33:00;95352.00;;;6.03;100.00
6030;BME280;3043;42.682;23.376;2023-03-01T05:35:26;95347.75;;;5.98;100.00
6030;BME280;3043;42.682;23.376;2023-03-01T05:37:52;95343.47;;;5.98;100.00
6030;BME280;3043;42.682;23.376;2023-03-01T05:40:21;95344.31;;;5.99;100.00
6030;BME280;3043;42.682;23.376;2023-03-01T05:42:48;95357.16;;;5.91;100.00
6030;BME280;3043;42.682;23.376;2023-03-01T05:45:16;95341.78;;;5.85;100.00
6030;BME280;3043;42.682;23.376;2023-03-01T05:47:43;95344.34;;;5.90;100.00
6030;BME280;3043;42.682;23.376;2023-03-01T05:50:24;95364.88;;;5.93;100.00
6030;BME280;3043;42.682;23.376;2023-03-01T05:53:02;95365.75;;;5.92;100.00
6030;BME280;3043;42.682;23.376;2023-03-01T05:55:29;95355.47;;;5.89;100.00
6030;BME280;3043;42.682;23.376;2023-03-01T05:57:58;95367.44;;;5.90;100.00
6030;BME280;3043;42.682;23.376;2023-03-01T06:00:24;95362.31;;;5.90;100.00
6030;BME280;3043;42.682;23.376;2023-03-01T06:02:50;95375.16;;;5.90;100.00
6030;BME280;3043;42.682;23.376;2023-03-01T06:05:17;95374.31;;;5.98;100.00
6030;BME280;3043;42.682;23.376;2023-03-01T06:07:43;95370.00;;;5.99;100.00
6030;BME280;3043;42.682;23.376;2023-03-01T06:10:10;95382.00;;;6.06;100.00
6030;BME280;3043;42.682;23.376;2023-03-01T06:12:38;95382.00;;;6.12;100.00
6030;BME280;3043;42.682;23.376;2023-03-01T06:15:04;95383.69;;;6.13;100.00
6030;BME280;3043;42.682;23.376;2023-03-01T06:17:32;95386.25;;;6.23;100.00
6030;BME280;3043;42.682;23.376;2023-03-01T06:19:58;95400.81;;;6.32;100.00
6030;BME280;3043;42.682;23.376;2023-03-01T06:22:24;95399.09;;;6.25;100.00
6030;BME280;3043;42.682;23.376;2023-03-01T06:24:49;95399.09;;;6.19;100.00
6030;BME280;3043;42.682;23.376;2023-03-01T06:27:15;95399.09;;;6.19;100.00
6030;BME280;3043;42.682;23.376;2023-03-01T06:29:40;95397.41;;;6.24;100.00
6030;BME280;3043;42.682;23.376;2023-03-01T06:32:06;95393.13;;;6.21;100.00
6030;BME280;3043;42.682;23.376;2023-03-01T06:34:33;95396.53;;;6.14;100.00
6030;BME280;3043;42.682;23.376;2023-03-01T06:36:58;95389.69;;;6.22;100.00
6030;BME280;3043;42.682;23.376;2023-03-01T06:39:24;95395.69;;;6.30;100.00
6030;BME280;3043;42.682;23.376;2023-03-01T06:41:49;95399.09;;;6.31;100.00
6030;BME280;3043;42.682;23.376;2023-03-01T06:44:15;95402.50;;;6.36;100.00
6030;BME280;3043;42.682;23.376;2023-03-01T06:46:40;95405.94;;;6.41;100.00
6030;BME280;3043;42.682;23.376;2023-03-01T06:49:06;95395.66;;;6.41;100.00
6030;BME280;3043;42.682;23.376;2023-03-01T06:51:35;95394.75;;;6.49;100.00
6030;BME280;3043;42.682;23.376;2023-03-01T06:54:02;95397.31;;;6.51;100.00
6030;BME280;3043;42.682;23.376;2023-03-01T06:56:28;95399.88;;;6.54;100.00
6030;BME280;3043;42.682;23.376;2023-03-01T06:58:53;95402.47;;;6.54;100.00
6030;BME280;3043;42.682;23.376;2023-03-01T07:01:18;95409.28;;;6.58;100.00
6030;BME280;3043;42.682;23.376;2023-03-01T07:03:44;95389.59;;;6.55;100.00
6030;BME280;3043;42.682;23.376;2023-03-01T07:06:09;95403.28;;;6.69;100.00
6030;BME280;3043;42.682;23.376;2023-03-01T07:08:35;95401.53;;;6.79;100.00
6030;BME280;3043;42.682;23.376;2023-03-01T07:11:00;95404.09;;;6.82;100.00
6030;BME280;3043;42.682;23.376;2023-03-01T07:13:27;95402.38;;;6.75;100.00
6030;BME280;3043;42.682;23.376;2023-03-01T07:15:53;95397.28;;;6.69;100.00
6030;BME280;3043;42.682;23.376;2023-03-01T07:18:18;95399.84;;;6.64;100.00
6030;BME280;3043;42.682;23.376;2023-03-01T07:20:44;95395.53;;;6.74;100.00
6030;BME280;3043;42.682;23.376;2023-03-01T07:23:09;95400.66;;;6.83;100.00
6030;BME280;3043;42.682;23.376;2023-03-01T07:25:35;95397.22;;;6.78;100.00
6030;BME280;3043;42.682;23.376;2023-03-01T07:28:00;95398.97;;;6.82;100.00
6030;BME280;3043;42.682;23.376;2023-03-01T07:30:26;95397.22;;;6.78;100.00
6030;BME280;3043;42.682;23.376;2023-03-01T07:32:54;95391.25;;;6.76;100.00
6030;BME280;3043;42.682;23.376;2023-03-01T07:35:20;95393.78;;;6.85;100.00
6030;BME280;3043;42.682;23.376;2023-03-01T07:37:46;95398.00;;;6.98;100.00
6030;BME280;3043;42.682;23.376;2023-03-01T07:40:12;95400.53;;;7.10;100.00
6030;BME280;3043;42.682;23.376;2023-03-01T07:42:37;95393.66;;;7.12;100.00
6030;BME280;3043;42.682;23.376;2023-03-01T07:45:04;95393.56;;;7.27;100.00
6030;BME280;3043;42.682;23.376;2023-03-01T07:47:30;95386.53;;;7.55;100.00
6030;BME280;3043;42.682;23.376;2023-03-01T07:49:55;95393.38;;;7.57;100.00
6030;BME280;3043;42.682;23.376;2023-03-01T07:52:20;95388.16;;;7.66;100.00
6030;BME280;3043;42.682;23.376;2023-03-01T07:54:46;95384.72;;;7.64;100.00
6030;BME280;3043;42.682;23.376;2023-03-01T07:57:12;95374.50;;;7.55;100.00
6030;BME280;3043;42.682;23.376;2023-03-01T07:59:38;95375.41;;;7.50;100.00
6030;BME280;3043;42.682;23.376;2023-03-01T08:02:03;95369.44;;;7.43;100.00
6030;BME280;3043;42.682;23.376;2023-03-01T08:04:29;95373.72;;;7.46;100.00
6030;BME280;3043;42.682;23.376;2023-03-01T08:06:54;95371.06;;;7.56;100.00
6030;BME280;3043;42.682;23.376;2023-03-01T08:09:21;95372.63;;;7.75;100.00
6030;BME280;3043;42.682;23.376;2023-03-01T08:11:47;95369.13;;;7.85;100.00
6030;BME280;3043;42.682;23.376;2023-03-01T08:14:12;95369.88;;;7.95;100.00
6030;BME280;3043;42.682;23.376;2023-03-01T08:16:38;95374.31;;;7.82;100.00
6030;BME280;3043;42.682;23.376;2023-03-01T08:19:09;95360.38;;;8.04;100.00
6030;BME280;3043;42.682;23.376;2023-03-01T08:21:35;95368.84;;;8.15;100.00
6030;BME280;3043;42.682;23.376;2023-03-01T08:24:04;95368.78;;;8.27;100.00
6030;BME280;3043;42.682;23.376;2023-03-01T08:26:31;95377.25;;;8.38;100.00
6030;BME280;3043;42.682;23.376;2023-03-01T08:28:57;95384.03;;;8.47;100.00
6030;BME280;3043;42.682;23.376;2023-03-01T08:31:28;95380.69;;;8.39;100.00
6030;BME280;3043;42.682;23.376;2023-03-01T08:33:57;95382.53;;;8.20;100.00
6030;BME280;3043;42.682;23.376;2023-03-01T08:36:31;95362.75;;;8.28;100.00
6030;BME280;3043;42.682;23.376;2023-03-01T08:38:56;95369.47;;;8.44;100.00
6030;BME280;3043;42.682;23.376;2023-03-01T08:41:22;95370.47;;;8.28;100.00
6030;BME280;3043;42.682;23.376;2023-03-01T08:43:48;95373.97;;;8.21;100.00
6030;BME280;3043;42.682;23.376;2023-03-01T08:46:13;95369.63;;;8.28;100.00
6030;BME280;3043;42.682;23.376;2023-03-01T08:48:39;95373.78;;;8.42;100.00
6030;BME280;3043;42.682;23.376;2023-03-01T08:51:16;95382.94;;;8.67;100.00
6030;BME280;3043;42.682;23.376;2023-03-01T08:53:42;95384.59;;;8.74;100.00
6030;BME280;3043;42.682;23.376;2023-03-01T08:56:09;95386.50;;;8.59;100.00
6030;BME280;3043;42.682;23.376;2023-03-01T08:58:35;95392.81;;;8.32;100.00
6030;BME280;3043;42.682;23.376;2023-03-01T09:01:00;95394.59;;;8.24;100.00
6030;BME280;3043;42.682;23.376;2023-03-01T09:03:27;95404.97;;;8.12;100.00
6030;BME280;3043;42.682;23.376;2023-03-01T09:05:52;95389.59;;;8.03;100.00
6030;BME280;3043;42.682;23.376;2023-03-01T09:08:18;95382.56;;;8.17;100.00
6030;BME280;3043;42.682;23.376;2023-03-01T09:10:44;95382.59;;;8.16;100.00
6030;BME280;3043;42.682;23.376;2023-03-01T09:13:10;95365.53;;;8.01;100.00
6030;BME280;3043;42.682;23.376;2023-03-01T09:15:39;95384.31;;;8.15;100.00
6030;BME280;3043;42.682;23.376;2023-03-01T09:18:05;95399.81;;;8.15;100.00
6030;BME280;3043;42.682;23.376;2023-03-01T09:20:31;95384.31;;;8.15;100.00
6030;BME280;3043;42.682;23.376;2023-03-01T09:22:57;95384.25;;;8.27;100.00
6030;BME280;3043;42.682;23.376;2023-03-01T09:25:23;95378.91;;;8.45;100.00
6030;BME280;3043;42.682;23.376;2023-03-01T09:27:52;95373.69;;;8.51;100.00
6030;BME280;3043;42.682;23.376;2023-03-01T09:30:18;95375.34;;;8.55;100.00
6030;BME280;3043;42.682;23.376;2023-03-01T09:32:44;95366.75;;;8.56;100.00
6030;BME280;3043;42.682;23.376;2023-03-01T09:35:10;95377.13;;;8.50;100.00
6030;BME280;3043;42.682;23.376;2023-03-01T09:37:36;95377.94;;;8.52;100.00
6030;BME280;3043;42.682;23.376;2023-03-01T09:40:06;95374.66;;;8.41;100.00
6030;BME280;3043;42.682;23.376;2023-03-01T09:42:35;95384.31;;;8.18;100.00
6030;BME280;3043;42.682;23.376;2023-03-01T09:45:04;95368.91;;;8.09;100.00
6030;BME280;3043;42.682;23.376;2023-03-01T09:47:33;95365.53;;;8.01;100.00
6030;BME280;3043;42.682;23.376;2023-03-01T09:50:13;95312.28;;;8.03;100.00
6030;BME280;3043;42.682;23.376;2023-03-01T09:55:13;95360.28;;;8.13;100.00
6030;BME280;3043;42.682;23.376;2023-03-01T10:05:36;95349.84;;;8.28;100.00
6030;BME280;3043;42.682;23.376;2023-03-01T10:10:36;95345.72;;;8.09;100.00
6030;BME280;3043;42.682;23.376;2023-03-01T10:13:16;95338.81;;;8.11;100.00
6030;BME280;3043;42.682;23.376;2023-03-01T10:15:55;95341.44;;;8.04;100.00
6030;BME280;3043;42.682;23.376;2023-03-01T10:18:28;95347.56;;;7.95;100.00
6030;BME280;3043;42.682;23.376;2023-03-01T10:21:00;95341.38;;;8.11;100.00
6030;BME280;3043;42.682;23.376;2023-03-01T10:23:27;95356.78;;;8.23;100.00
6030;BME280;3043;42.682;23.376;2023-03-01T10:26:01;95334.31;;;8.34;100.00
6030;BME280;3043;42.682;23.376;2023-03-01T10:28:58;95337.59;;;8.48;100.00
6030;BME280;3043;42.682;23.376;2023-03-01T10:31:27;95331.63;;;8.42;100.00
6030;BME280;3043;42.682;23.376;2023-03-01T10:34:04;95320.38;;;8.50;100.00
6030;BME280;3043;42.682;23.376;2023-03-01T10:36:32;95332.22;;;8.66;100.00
6030;BME280;3043;42.682;23.376;2023-03-01T10:38:58;95331.38;;;8.64;100.00
6030;BME280;3043;42.682;23.376;2023-03-01T10:41:26;95317.88;;;8.44;100.00
6030;BME280;3043;42.682;23.376;2023-03-01T10:43:56;95317.72;;;8.56;100.00
6030;BME280;3043;42.682;23.376;2023-03-01T10:46:31;95306.50;;;8.60;100.00
6030;BME280;3043;42.682;23.376;2023-03-01T10:51:39;95312.41;;;8.68;100.00
6030;BME280;3043;42.682;23.376;2023-03-01T10:54:27;95315.66;;;8.84;100.00
6030;BME280;3043;42.682;23.376;2023-03-01T10:57:01;95305.47;;;8.75;100.00
6030;BME280;3043;42.682;23.376;2023-03-01T10:59:35;95311.47;;;8.75;100.00
6030;BME280;3043;42.682;23.376;2023-03-01T11:02:30;95311.06;;;9.05;100.00
6030;BME280;3043;42.682;23.376;2023-03-01T11:05:21;95309.78;;;9.35;100.00
6030;BME280;3043;42.682;23.376;2023-03-01T11:10:42;95304.41;;;9.99;100.00
6030;BME280;3043;42.682;23.376;2023-03-01T11:13:17;95313.88;;;10.00;100.00
6030;BME280;3043;42.682;23.376;2023-03-01T11:15:57;95309.66;;;9.94;100.00
6030;BME280;3043;42.682;23.376;2023-03-01T11:18:23;95323.50;;;9.92;100.00
6030;BME280;3043;42.682;23.376;2023-03-01T11:20:52;95310.84;;;9.75;100.00
6030;BME280;3043;42.682;23.376;2023-03-01T11:23:18;95310.31;;;9.57;100.00
6030;BME280;3043;42.682;23.376;2023-03-01T11:25:54;95326.84;;;9.45;100.00
6030;BME280;3043;42.682;23.376;2023-03-01T11:28:20;95321.97;;;9.24;100.00
6030;BME280;3043;42.682;23.376;2023-03-01T11:31:06;95306.72;;;9.07;100.00
6030;BME280;3043;42.682;23.376;2023-03-01T11:33:57;95303.34;;;9.02;100.00
6030;BME280;3043;42.682;23.376;2023-03-01T11:36:42;95311.06;;;9.05;100.00
6030;BME280;3043;42.682;23.376;2023-03-01T11:39:37;95306.78;;;9.03;100.00
6030;BME280;3043;42.682;23.376;2023-03-01T11:44:36;95300.38;;;9.31;100.00
6030;BME280;3043;42.682;23.376;2023-03-01T11:49:49;95281.97;;;9.51;100.00
6030;BME280;3043;42.682;23.376;2023-03-01T11:52:41;95270.56;;;9.64;100.00
6030;BME280;3043;42.682;23.376;2023-03-01T12:06:36;95270.72;;;9.55;100.00
6030;BME280;3043;42.682;23.376;2023-03-01T12:15:03;95269.44;;;9.80;100.00
6030;BME280;3043;42.682;23.376;2023-03-01T12:18:10;95276.22;;;9.85;100.00
6030;BME280;3043;42.682;23.376;2023-03-01T12:28:51;95247.34;;;9.61;100.00
6030;BME280;3043;42.682;23.376;2023-03-01T12:37:04;95254.13;;;9.15;100.00
6030;BME280;3043;42.682;23.376;2023-03-01T12:39:40;95262.75;;;9.14;100.00
6030;BME280;3043;42.682;23.376;2023-03-01T12:43:17;95240.25;;;9.22;100.00
6030;BME280;3043;42.682;23.376;2023-03-01T12:50:53;95241.13;;;9.19;100.00
6030;BME280;3043;42.682;23.376;2023-03-01T12:53:25;95246.13;;;9.33;100.00
6030;BME280;3043;42.682;23.376;2023-03-01T12:55:58;95247.88;;;9.29;100.00
6030;BME280;3043;42.682;23.376;2023-03-01T13:09:28;95238.19;;;8.87;100.00
6030;BME280;3043;42.682;23.376;2023-03-01T13:11:56;95228.47;;;9.02;100.00
6030;BME280;3043;42.682;23.376;2023-03-01T13:16:51;95240.34;;;9.16;100.00
6030;BME280;3043;42.682;23.376;2023-03-01T13:19:20;95232.75;;;9.05;100.00
6030;BME280;3043;42.682;23.376;2023-03-01T13:21:48;95245.03;;;8.89;100.00
6030;BME280;3043;42.682;23.376;2023-03-01T13:24:37;95239.16;;;8.78;100.00
6030;BME280;3043;42.682;23.376;2023-03-01T13:32:21;95235.91;;;8.64;100.00
6030;BME280;3043;42.682;23.376;2023-03-01T13:34:49;95239.50;;;8.54;100.00
6030;BME280;3043;42.682;23.376;2023-03-01T13:37:35;95240.53;;;8.43;100.00
6030;BME280;3043;42.682;23.376;2023-03-01T13:40:05;95231.88;;;8.45;100.00
6030;BME280;3043;42.682;23.376;2023-03-01T13:42:40;95227.63;;;8.41;100.00
6030;BME280;3043;42.682;23.376;2023-03-01T13:45:17;95230.19;;;8.44;100.00
6030;BME280;3043;42.682;23.376;2023-03-01T13:47:44;95230.94;;;8.49;100.00
6030;BME280;3043;42.682;23.376;2023-03-01T13:50:18;95226.56;;;8.57;100.00
6030;BME280;3043;42.682;23.376;2023-03-01T13:52:59;95224.78;;;8.62;100.00
6030;BME280;3043;42.682;23.376;2023-03-01T13:55:41;95229.13;;;8.57;100.00
6030;BME280;3043;42.682;23.376;2023-03-01T13:58:28;95223.94;;;8.60;100.00
6030;BME280;3043;42.682;23.376;2023-03-01T14:01:38;95221.22;;;8.71;100.00
6030;BME280;3043;42.682;23.376;2023-03-01T14:03:44;95208.09;;;8.84;100.00
6030;BME280;3043;42.682;23.376;2023-03-01T14:06:18;95217.41;;;8.96;100.00
6030;BME280;3043;42.682;23.376;2023-03-01T14:08:45;95219.13;;;8.95;100.00
6030;BME280;3043;42.682;23.376;2023-03-01T14:14:14;95223.03;;;8.61;100.00
6030;BME280;3043;42.682;23.376;2023-03-01T14:19:24;95212.84;;;8.52;100.00
6030;BME280;3043;42.682;23.376;2023-03-01T14:24:47;95222.41;;;8.47;100.00
6030;BME280;3043;42.682;23.376;2023-03-01T14:27:14;95221.72;;;8.33;100.00
6030;BME280;3043;42.682;23.376;2023-03-01T14:29:40;95196.91;;;8.22;100.00
6030;BME280;3043;42.682;23.376;2023-03-01T14:32:32;95213.38;;;8.10;100.00
6030;BME280;3043;42.682;23.376;2023-03-01T14:34:59;95208.06;;;8.24;100.00
6030;BME280;3043;42.682;23.376;2023-03-01T14:37:31;95212.25;;;8.35;100.00
6030;BME280;3043;42.682;23.376;2023-03-01T14:39:58;95210.34;;;8.46;100.00
6030;BME280;3043;42.682;23.376;2023-03-01T14:42:27;95215.56;;;8.43;100.00
6030;BME280;3043;42.682;23.376;2023-03-01T14:44:54;95208.88;;;8.30;100.00
6030;BME280;3043;42.682;23.376;2023-03-01T14:47:30;95203.75;;;8.27;100.00
6030;BME280;3043;42.682;23.376;2023-03-01T14:50:00;95212.41;;;8.17;100.00
6030;BME280;3043;42.682;23.376;2023-03-01T14:52:41;95203.78;;;8.21;100.00
6030;BME280;3043;42.682;23.376;2023-03-01T14:55:37;95200.47;;;8.10;100.00
6030;BME280;3043;42.682;23.376;2023-03-01T14:58:12;95207.41;;;8.05;100.00
6030;BME280;3043;42.682;23.376;2023-03-01T15:00:38;95206.56;;;8.06;100.00
6030;BME280;3043;42.682;23.376;2023-03-01T15:03:11;95198.88;;;8.00;100.00